Ince-in-Makerfield, United Kingdom
Current Conditions -  °F | °C
As of 6:20 AM on Saturday 20 Dec 2014 (Local Time) from EGGP Reporting Station
Rain Showers Rain Showers  
Wind Chill: 37°   Ceiling: Unl
Heat Index: 46°   Visibility: 6mi
Dew Point: 39°   Wind: 29mph
Humidity: 76%   Direction: 280°W
Pressure: 30.09"   Gusts: 43mph
Location:  53.53°N, 2.62°W
Report Text: EGGP 200620Z 28025G37KT 9999 -SHRA FEW025 SCT035 08/04 Q1019
Loading
Personal Weather Stations






























Interactive Weather Map New forecast layout! Learn more

10-Day Weather Forecast

Advertisements
Track Severe Weather on mobile